Time;durP1;ratioP1;P1;durP2;ratioP2;P2;SDS_P1;SDS_P2;PMS_P1;PMS_P2;Temp;Humidity;BMP_temperature;BMP_pressure;BME280_temperature;BME280_humidity;BME280_pressure;Samples;Min_cycle;Max_cycle;Signal;HPM_P1;HPM_P2
2021/07/20 00:02:36;;;;;;;10.02;8.98;;;31.80;41.60;;;;;;4311495;33;20110;-38
2021/07/20 00:05:05;;;;;;;11.93;9.10;;;31.80;41.50;;;;;;4311406;33;20074;-38
2021/07/20 00:07:32;;;;;;;8.98;8.20;;;31.80;42.10;;;;;;4314836;33;20075;-37
2021/07/20 00:09:58;;;;;;;10.02;8.48;;;31.80;41.30;;;;;;4339587;33;20154;-38
2021/07/20 00:12:25;;;;;;;10.65;8.82;;;31.80;41.30;;;;;;4329406;33;20089;-38
2021/07/20 00:14:52;;;;;;;13.55;9.60;;;31.90;41.30;;;;;;4342876;33;20070;-38
2021/07/20 00:17:22;;;;;;;11.75;8.20;;;31.90;41.30;;;;;;4343209;33;20075;-37
2021/07/20 00:19:50;;;;;;;10.20;8.93;;;31.90;41.10;;;;;;4342799;33;20134;-37
2021/07/20 00:22:16;;;;;;;11.48;9.18;;;31.90;41.00;;;;;;4343144;33;20073;-37
2021/07/20 00:24:43;;;;;;;13.43;8.35;;;31.90;41.00;;;;;;4328948;33;20094;-37
2021/07/20 00:27:09;;;;;;;9.57;7.80;;;31.90;40.90;;;;;;4342695;33;20535;-37
2021/07/20 00:29:36;;;;;;;12.40;8.25;;;31.90;40.80;;;;;;4343071;33;20051;-37
2021/07/20 00:32:02;;;;;;;9.27;8.35;;;31.90;40.70;;;;;;4311084;33;20072;-37
2021/07/20 00:34:29;;;;;;;13.62;9.93;;;32.00;40.80;;;;;;4311002;33;20626;-37
2021/07/20 00:36:55;;;;;;;8.27;7.47;;;32.00;40.70;;;;;;4298837;33;20546;-37
2021/07/20 00:39:22;;;;;;;12.73;8.65;;;32.00;40.70;;;;;;4311417;33;20177;-37
2021/07/20 00:41:48;;;;;;;13.05;8.68;;;32.00;40.50;;;;;;4310874;33;20193;-37
2021/07/20 00:44:14;;;;;;;12.27;7.78;;;32.00;40.50;;;;;;4296216;33;20067;-37
2021/07/20 00:46:41;;;;;;;16.08;9.55;;;32.00;40.60;;;;;;4296433;33;20068;-37
2021/07/20 00:49:07;;;;;;;16.17;9.05;;;32.00;40.70;;;;;;4296484;33;20084;-37
2021/07/20 00:51:34;;;;;;;13.35;8.93;;;32.00;40.60;;;;;;4284216;33;20542;-37
2021/07/20 00:54:00;;;;;;;10.88;8.20;;;32.00;40.70;;;;;;4296550;33;20091;-37
2021/07/20 00:56:26;;;;;;;15.77;9.40;;;32.00;40.60;;;;;;4284181;33;20586;-37
2021/07/20 00:58:54;;;;;;;12.40;8.73;;;32.00;40.60;;;;;;4282847;33;20080;-37
2021/07/20 01:01:21;;;;;;;8.95;7.78;;;32.10;40.60;;;;;;4270179;33;20076;-37
2021/07/20 01:03:47;;;;;;;14.57;9.10;;;32.10;40.40;;;;;;4270087;33;20072;-37
2021/07/20 01:06:13;;;;;;;18.65;8.48;;;32.20;40.50;;;;;;4270305;33;20092;-37
2021/07/20 01:08:40;;;;;;;12.27;7.82;;;32.20;40.60;;;;;;4260097;33;20521;-37
2021/07/20 01:11:07;;;;;;;12.37;8.88;;;32.20;41.00;;;;;;4284439;33;20063;-37
2021/07/20 01:13:33;;;;;;;14.85;9.05;;;32.20;40.60;;;;;;4272888;33;20083;-37
2021/07/20 01:16:00;;;;;;;14.27;9.18;;;32.20;40.60;;;;;;4308229;33;20143;-37
2021/07/20 01:18:26;;;;;;;11.77;9.48;;;32.20;40.60;;;;;;4318190;33;20066;-37
2021/07/20 01:20:53;;;;;;;20.52;10.73;;;32.30;40.60;;;;;;4331863;33;20482;-37
2021/07/20 01:23:46;;;;;;;28.52;12.70;;;32.30;40.50;;;;;;4319662;33;20066;-37
2021/07/20 01:26:13;;;;;;;21.15;11.38;;;32.40;40.80;;;;;;4329605;33;20075;-37
2021/07/20 01:28:40;;;;;;;16.02;9.68;;;32.40;40.70;;;;;;4331389;33;20060;-37
2021/07/20 01:31:12;;;;;;;20.27;10.82;;;32.40;41.40;;;;;;4331569;33;20181;-37
2021/07/20 01:33:41;;;;;;;17.42;11.60;;;32.50;41.40;;;;;;4345062;33;20085;-37
2021/07/20 01:36:07;;;;;;;15.77;9.18;;;32.50;42.10;;;;;;4319286;33;20075;-37
2021/07/20 01:38:35;;;;;;;15.23;8.40;;;32.40;42.40;;;;;;4319504;33;20074;-37
2021/07/20 01:41:06;;;;;;;17.45;10.30;;;32.50;42.80;;;;;;4319707;33;20608;-37
2021/07/20 01:43:34;;;;;;;14.93;8.80;;;32.50;42.80;;;;;;4331922;33;20561;-37
2021/07/20 01:46:02;;;;;;;11.98;8.25;;;32.60;42.60;;;;;;4318846;33;20067;-37
2021/07/20 01:48:33;;;;;;;14.93;8.57;;;32.60;42.60;;;;;;4331111;33;20508;-37
2021/07/20 01:51:01;;;;;;;10.13;7.62;;;32.70;42.50;;;;;;4331645;33;20133;-37
2021/07/20 01:53:27;;;;;;;11.40;7.60;;;32.80;42.80;;;;;;4331340;33;20077;-37
2021/07/20 01:55:54;;;;;;;14.10;9.52;;;32.90;41.90;;;;;;4318492;33;20059;-37
2021/07/20 01:58:20;;;;;;;14.63;7.93;;;33.10;42.50;;;;;;4330914;33;20089;-37
2021/07/20 02:00:47;;;;;;;8.98;7.40;;;33.30;41.70;;;;;;4330968;33;20074;-37
2021/07/20 02:03:31;;;;;;;9.80;8.00;;;33.50;41.60;;;;;;4330919;33;20062;-37
2021/07/20 02:08:49;;;;;;;10.07;7.20;;;33.90;41.30;;;;;;4332947;33;20258;-37
2021/07/20 02:11:25;;;;;;;12.85;7.93;;;34.10;41.20;;;;;;4344869;33;20082;-37
2021/07/20 02:14:00;;;;;;;12.30;7.43;;;34.30;40.80;;;;;;4319851;33;20074;-37
2021/07/20 02:16:31;;;;;;;16.48;7.72;;;34.40;40.60;;;;;;4319388;33;20610;-37
2021/07/20 02:19:18;;;;;;;9.98;7.15;;;34.60;40.50;;;;;;4330864;33;20108;-37
2021/07/20 02:21:47;;;;;;;9.48;6.47;;;34.80;40.50;;;;;;4344631;33;20464;-37
2021/07/20 02:24:18;;;;;;;9.75;7.47;;;35.00;40.40;;;;;;4344447;33;20059;-37
2021/07/20 02:26:46;;;;;;;9.70;7.05;;;35.20;40.40;;;;;;4330280;33;20546;-37
2021/07/20 02:29:13;;;;;;;9.57;7.62;;;35.20;40.20;;;;;;4344079;33;20093;-37
2021/07/20 02:31:40;;;;;;;8.18;6.72;;;35.30;40.20;;;;;;4330679;33;20086;-37
2021/07/20 02:34:06;;;;;;;13.60;8.27;;;35.40;40.20;;;;;;4306524;33;20106;-37
2021/07/20 02:36:37;;;;;;;8.82;6.95;;;35.40;40.20;;;;;;4330415;33;20123;-37
2021/07/20 02:39:08;;;;;;;9.25;6.95;;;35.60;40.50;;;;;;4318981;33;20175;-37
2021/07/20 02:41:35;;;;;;;10.07;7.47;;;35.60;40.40;;;;;;4344432;33;20535;-38
2021/07/20 02:44:04;;;;;;;9.85;7.82;;;35.70;40.30;;;;;;4318282;33;20177;-38
2021/07/20 02:46:30;;;;;;;11.45;6.90;;;35.90;40.10;;;;;;4318228;33;20066;-38
2021/07/20 02:48:57;;;;;;;9.68;7.10;;;36.00;40.00;;;;;;4330395;33;20081;-38
2021/07/20 02:51:24;;;;;;;9.00;7.18;;;36.10;39.70;;;;;;4330625;33;20555;-38
2021/07/20 02:53:57;;;;;;;9.90;6.80;;;36.20;39.30;;;;;;4343726;33;20070;-38
2021/07/20 02:56:24;;;;;;;10.40;8.07;;;36.20;39.40;;;;;;4329951;33;20535;-38
2021/07/20 02:58:54;;;;;;;8.45;7.62;;;36.40;39.20;;;;;;4329966;33;20082;-38
2021/07/20 03:01:21;;;;;;;13.32;8.15;;;36.50;39.10;;;;;;4343981;33;20063;-38
2021/07/20 03:03:47;;;;;;;9.55;8.13;;;36.70;38.80;;;;;;4317864;33;20069;-38
2021/07/20 03:06:13;;;;;;;13.32;7.70;;;36.90;38.50;;;;;;4329559;33;20174;-37
2021/07/20 03:08:41;;;;;;;11.70;7.30;;;37.10;38.20;;;;;;4317740;33;20070;-38
2021/07/20 03:11:10;;;;;;;8.68;6.43;;;37.30;38.00;;;;;;4330454;33;20137;-38
2021/07/20 03:13:43;;;;;;;12.15;7.93;;;37.50;37.80;;;;;;4330071;33;20523;-38
2021/07/20 03:16:09;;;;;;;9.70;6.83;;;37.80;37.50;;;;;;4330038;33;20093;-36
2021/07/20 03:18:37;;;;;;;8.85;7.10;;;37.90;37.20;;;;;;4329780;33;20640;-37
2021/07/20 03:21:04;;;;;;;12.23;7.40;;;38.10;37.00;;;;;;4343584;33;20067;-37
2021/07/20 03:23:30;;;;;;;11.85;7.72;;;38.20;36.90;;;;;;4317967;33;20073;-37
2021/07/20 03:25:58;;;;;;;18.17;8.63;;;38.30;36.60;;;;;;4329776;33;20065;-37
2021/07/20 03:28:24;;;;;;;9.38;6.57;;;38.50;36.50;;;;;;4329621;33;20075;-37
2021/07/20 03:30:53;;;;;;;12.45;7.57;;;38.70;35.90;;;;;;4317460;33;20055;-37
2021/07/20 03:33:21;;;;;;;9.25;6.85;;;38.80;35.70;;;;;;4329692;33;20142;-37
2021/07/20 03:35:51;;;;;;;9.00;6.53;;;38.80;35.60;;;;;;4329785;33;20067;-37
2021/07/20 03:38:19;;;;;;;12.25;7.25;;;38.90;35.50;;;;;;4330009;33;20126;-37
2021/07/20 03:40:46;;;;;;;12.90;7.35;;;38.90;35.60;;;;;;4342847;32;20067;-37
2021/07/20 03:43:15;;;;;;;10.13;7.45;;;38.80;35.50;;;;;;4329711;33;20066;-38
2021/07/20 03:45:41;;;;;;;13.38;7.25;;;38.80;35.70;;;;;;4343101;33;20066;-37
2021/07/20 03:48:08;;;;;;;14.18;8.93;;;38.80;36.00;;;;;;4329816;33;20093;-38
2021/07/20 03:50:35;;;;;;;9.40;6.70;;;38.80;35.70;;;;;;4329289;33;20504;-38
2021/07/20 03:53:02;;;;;;;10.40;7.05;;;38.90;35.60;;;;;;4329664;33;20106;-38
2021/07/20 03:55:28;;;;;;;10.50;7.47;;;39.10;36.00;;;;;;4329384;33;20160;-38
2021/07/20 03:57:55;;;;;;;9.38;6.87;;;39.30;35.10;;;;;;4334314;33;20152;-38
2021/07/20 04:00:21;;;;;;;8.23;6.28;;;39.50;34.60;;;;;;4329442;32;20082;-38
2021/07/20 04:03:21;;;;;;;7.57;6.87;;;39.80;34.50;;;;;;4341333;33;20075;-38
2021/07/20 04:05:45;;;;;;;17.52;8.30;;;40.00;34.10;;;;;;4323241;33;20051;-38
2021/07/20 04:08:14;;;;;;;10.43;7.07;;;40.10;34.20;;;;;;4342404;32;20100;-38
2021/07/20 04:10:40;;;;;;;11.55;6.57;;;40.30;33.40;;;;;;4344136;32;20151;-38
2021/07/20 04:13:10;;;;;;;7.93;6.30;;;40.50;33.10;;;;;;4344295;32;20160;-36
2021/07/20 04:16:00;;;;;;;11.20;7.37;;;40.70;32.30;;;;;;4331710;32;20524;-36
2021/07/20 04:18:29;;;;;;;16.00;7.47;;;40.80;32.30;;;;;;4356966;32;20082;-36
2021/07/20 04:20:56;;;;;;;10.70;6.55;;;40.90;32.30;;;;;;4344439;32;20055;-37
2021/07/20 04:23:23;;;;;;;7.28;6.53;;;41.10;32.00;;;;;;4343851;32;20609;-37
2021/07/20 04:25:54;;;;;;;8.73;6.70;;;41.00;32.00;;;;;;4319408;32;20467;-37
2021/07/20 04:28:21;;;;;;;10.63;7.45;;;41.10;32.30;;;;;;4357470;32;20522;-37
2021/07/20 04:30:47;;;;;;;7.75;6.62;;;41.10;32.20;;;;;;4358119;32;20088;-37
2021/07/20 04:33:34;;;;;;;9.68;6.80;;;41.30;32.00;;;;;;4343681;32;20518;-37
2021/07/20 04:36:00;;;;;;;14.20;6.50;;;41.30;32.00;;;;;;4331062;32;20161;-37
2021/07/20 04:38:30;;;;;;;7.53;6.20;;;41.40;31.80;;;;;;4343914;32;20058;-38
2021/07/20 04:40:57;;;;;;;7.03;6.37;;;41.50;31.40;;;;;;4343729;32;20097;-38
2021/07/20 04:43:24;;;;;;;7.68;6.32;;;41.40;31.40;;;;;;4331615;32;20544;-38
2021/07/20 04:45:53;;;;;;;6.93;6.32;;;41.50;30.80;;;;;;4331500;32;20134;-37
2021/07/20 04:48:19;;;;;;;8.13;6.47;;;41.60;30.60;;;;;;4343963;32;20058;-38
2021/07/20 04:50:46;;;;;;;15.18;7.70;;;41.80;30.10;;;;;;4319555;32;20069;-38
2021/07/20 04:53:13;;;;;;;9.23;6.40;;;42.10;30.00;;;;;;4345786;32;20079;-37
2021/07/20 04:55:40;;;;;;;6.87;6.30;;;42.20;29.50;;;;;;4346883;32;20190;-38
2021/07/20 04:58:07;;;;;;;7.18;6.32;;;42.10;29.40;;;;;;4351359;32;20191;-38
2021/07/20 05:00:34;;;;;;;6.65;5.97;;;42.10;29.00;;;;;;4319682;33;20126;-38
2021/07/20 05:03:02;;;;;;;7.00;6.15;;;42.20;28.70;;;;;;4313117;33;20064;-37
2021/07/20 05:05:38;;;;;;;15.10;8.15;;;42.10;28.60;;;;;;4313593;33;20071;-38
2021/07/20 05:08:08;;;;;;;8.57;7.07;;;42.00;29.40;;;;;;4301369;33;20214;-37
2021/07/20 05:10:36;;;;;;;9.07;6.75;;;42.00;29.30;;;;;;4302161;33;20062;-38
2021/07/20 05:13:07;;;;;;;7.28;6.57;;;42.10;29.10;;;;;;4301579;33;20091;-37
2021/07/20 05:15:34;;;;;;;7.75;6.18;;;42.10;29.00;;;;;;4301668;33;20063;-37
2021/07/20 05:18:01;;;;;;;9.25;6.60;;;42.20;28.80;;;;;;4313663;33;20060;-38
2021/07/20 05:20:28;;;;;;;7.20;6.60;;;42.30;28.70;;;;;;4313522;33;20075;-38
2021/07/20 05:22:56;;;;;;;10.52;6.50;;;42.30;28.70;;;;;;4313255;33;20488;-36
2021/07/20 05:25:22;;;;;;;9.45;7.03;;;42.40;28.50;;;;;;4301100;33;20074;-37
2021/07/20 05:27:53;;;;;;;7.68;6.07;;;42.40;28.40;;;;;;4298436;33;20527;-36
2021/07/20 05:30:19;;;;;;;10.82;6.60;;;42.50;28.40;;;;;;4286836;33;20165;-37
2021/07/20 05:32:46;;;;;;;7.07;6.37;;;42.50;28.30;;;;;;4274944;33;20587;-37
2021/07/20 05:35:18;;;;;;;8.60;7.70;;;42.50;28.40;;;;;;4286513;33;20144;-37
2021/07/20 05:37:45;;;;;;;8.68;6.57;;;42.60;28.40;;;;;;4298772;33;20083;-37
2021/07/20 05:40:15;;;;;;;13.15;6.70;;;42.80;28.50;;;;;;4304442;33;20079;-37
2021/07/20 05:42:45;;;;;;;7.85;6.85;;;43.00;28.50;;;;;;4301522;33;20172;-37
2021/07/20 05:45:12;;;;;;;11.88;6.12;;;43.20;28.20;;;;;;4300823;33;20067;-37
2021/07/20 05:47:41;;;;;;;8.50;6.90;;;43.40;28.10;;;;;;4313420;33;20642;-36
2021/07/20 05:50:08;;;;;;;10.10;6.50;;;43.40;28.20;;;;;;4300686;33;20603;-37
2021/07/20 05:52:42;;;;;;;6.70;6.18;;;43.40;28.20;;;;;;4312916;33;20225;-37
2021/07/20 05:55:10;;;;;;;9.63;6.35;;;43.40;28.00;;;;;;4313131;33;20063;-38
2021/07/20 05:57:36;;;;;;;15.15;6.32;;;43.40;28.10;;;;;;4306267;33;20106;-38
2021/07/20 06:00:07;;;;;;;13.10;6.65;;;43.40;27.90;;;;;;4315450;33;20104;-37
2021/07/20 06:02:33;;;;;;;7.45;6.75;;;43.40;28.00;;;;;;4327674;33;20079;-37
2021/07/20 06:05:01;;;;;;;11.12;7.15;;;43.40;27.80;;;;;;4326977;32;20188;-38
2021/07/20 06:07:32;;;;;;;10.35;6.95;;;43.20;27.80;;;;;;4333451;32;20458;-37
2021/07/20 06:09:58;;;;;;;7.43;6.15;;;43.30;28.00;;;;;;4343281;33;20078;-37
2021/07/20 06:12:25;;;;;;;6.37;5.60;;;43.40;27.80;;;;;;4343096;33;20067;-39
2021/07/20 06:14:51;;;;;;;8.40;6.55;;;43.40;27.40;;;;;;4342774;33;20087;-38
2021/07/20 06:17:23;;;;;;;8.90;6.95;;;43.50;27.70;;;;;;4342958;33;20097;-41
2021/07/20 06:19:51;;;;;;;8.90;6.22;;;43.70;27.50;;;;;;4344540;32;20067;-44
2021/07/20 06:22:17;;;;;;;7.07;5.93;;;44.00;27.40;;;;;;4342874;33;20099;-37
2021/07/20 06:24:45;;;;;;;9.00;6.65;;;44.10;27.60;;;;;;4299759;33;20547;-37
2021/07/20 06:27:15;;;;;;;6.15;5.60;;;44.20;27.50;;;;;;4312371;33;20536;-38
2021/07/20 06:29:43;;;;;;;6.72;6.10;;;44.40;27.40;;;;;;4256670;33;20913;-38
2021/07/20 06:32:10;;;;;;;9.90;5.85;;;44.70;27.10;;;;;;4269099;33;20138;-38
2021/07/20 06:34:38;;;;;;;7.18;6.22;;;44.90;26.90;;;;;;4233646;33;20130;-37
2021/07/20 06:37:05;;;;;;;8.20;6.07;;;45.10;26.90;;;;;;4268993;33;20093;-36
2021/07/20 06:39:32;;;;;;;11.15;6.00;;;45.30;26.70;;;;;;4245449;33;20087;-37
2021/07/20 06:42:00;;;;;;;11.20;5.95;;;45.50;26.70;;;;;;4256994;33;20076;-37
2021/07/20 06:44:30;;;;;;;6.57;6.07;;;45.60;26.40;;;;;;4242624;33;20092;-38
2021/07/20 06:46:58;;;;;;;14.55;6.60;;;45.70;26.20;;;;;;4242691;33;20175;-38
2021/07/20 06:49:24;;;;;;;13.23;6.03;;;45.80;26.10;;;;;;4243051;33;20076;-38
2021/07/20 06:51:51;;;;;;;7.12;5.53;;;45.80;26.00;;;;;;4243273;33;20096;-38
2021/07/20 06:54:17;;;;;;;7.32;6.25;;;45.60;26.20;;;;;;4254424;33;20632;-38
2021/07/20 06:56:56;;;;;;;9.05;5.82;;;45.30;26.40;;;;;;4280386;33;20537;-38
2021/07/20 06:59:24;;;;;;;10.43;5.47;;;45.10;26.90;;;;;;4283147;33;20083;-38
2021/07/20 07:01:51;;;;;;;6.55;5.97;;;44.90;27.20;;;;;;4311446;33;20079;-38
2021/07/20 07:04:45;;;;;;;6.78;5.70;;;44.70;27.50;;;;;;4299582;33;20120;-38
2021/07/20 07:07:11;;;;;;;;;;;44.60;27.80;;;;;;4271596;33;20068;-38
2021/07/20 07:09:37;;;;;;;8.02;7.05;;;44.50;27.70;;;;;;4282891;33;19983;-37
2021/07/20 07:12:04;;;;;;;7.93;5.87;;;44.60;27.80;;;;;;4271085;33;20114;-38
2021/07/20 07:14:31;;;;;;;9.30;6.12;;;44.70;27.80;;;;;;4270639;33;20202;-37
2021/07/20 07:16:58;;;;;;;6.95;6.25;;;44.70;27.20;;;;;;4270432;33;20076;-37
2021/07/20 07:19:25;;;;;;;8.20;6.72;;;44.80;27.50;;;;;;4259112;33;20083;-37
2021/07/20 07:21:52;;;;;;;13.20;6.20;;;44.90;27.90;;;;;;4277871;33;20067;-38
2021/07/20 07:24:19;;;;;;;10.25;6.15;;;45.00;27.60;;;;;;4285327;33;20064;-38
2021/07/20 07:26:47;;;;;;;8.43;6.35;;;45.10;27.20;;;;;;4284819;33;20079;-39
2021/07/20 07:29:16;;;;;;;7.22;5.60;;;45.10;27.20;;;;;;4285191;33;20075;-38
2021/07/20 07:31:49;;;;;;;6.57;5.95;;;45.10;27.00;;;;;;4284564;33;20532;-38
2021/07/20 07:34:15;;;;;;;6.90;6.28;;;45.10;27.00;;;;;;4284973;33;20536;-37
2021/07/20 07:36:43;;;;;;;9.48;6.28;;;45.30;26.90;;;;;;4296761;33;20083;-38
2021/07/20 07:39:11;;;;;;;6.97;6.25;;;45.40;26.70;;;;;;4338913;33;20508;-39
2021/07/20 07:41:39;;;;;;;13.38;7.25;;;45.50;27.20;;;;;;4329430;33;20070;-38
2021/07/20 07:44:07;;;;;;;7.53;5.75;;;45.50;27.30;;;;;;4317557;33;20475;-38
2021/07/20 07:46:35;;;;;;;11.02;6.78;;;45.50;27.30;;;;;;4343305;33;20582;-38
2021/07/20 07:49:02;;;;;;;6.87;5.65;;;45.60;26.70;;;;;;4329151;33;20168;-38
2021/07/20 07:51:28;;;;;;;8.35;6.45;;;45.80;26.50;;;;;;4317313;33;20058;-38
2021/07/20 07:53:58;;;;;;;11.93;6.47;;;45.80;26.30;;;;;;4329299;33;20074;-38
2021/07/20 07:56:31;;;;;;;8.18;6.37;;;45.80;26.30;;;;;;4330053;33;20067;-38
2021/07/20 07:58:59;;;;;;;9.40;6.93;;;45.70;26.60;;;;;;4329090;33;20557;-38
2021/07/20 08:01:26;;;;;;;9.20;6.75;;;45.50;26.30;;;;;;4343441;33;20059;-38
2021/07/20 08:03:54;;;;;;;6.65;6.12;;;45.30;26.60;;;;;;4329702;33;20059;-38
2021/07/20 08:06:21;;;;;;;9.02;6.20;;;45.30;27.00;;;;;;4305523;33;20163;-38
2021/07/20 08:08:53;;;;;;;6.85;6.28;;;45.30;27.10;;;;;;4328947;33;20101;-39
2021/07/20 08:11:19;;;;;;;7.28;6.45;;;45.30;26.40;;;;;;4329327;33;20130;-39
2021/07/20 08:13:46;;;;;;;7.95;6.35;;;45.30;26.30;;;;;;4298476;33;20173;-39
2021/07/20 08:16:13;;;;;;;7.37;6.75;;;45.30;26.50;;;;;;4287161;33;20059;-39
2021/07/20 08:18:40;;;;;;;7.37;6.28;;;45.40;26.50;;;;;;4311062;33;20167;-38
2021/07/20 08:21:07;;;;;;;7.85;5.90;;;45.60;25.60;;;;;;4275478;33;20602;-38
2021/07/20 08:23:35;;;;;;;6.82;6.22;;;45.90;25.30;;;;;;4310657;33;20071;-39
2021/07/20 08:26:13;;;;;;;5.40;4.75;;;46.30;25.30;;;;;;4299203;33;20080;-38
2021/07/20 08:29:07;;;;;;;7.18;4.87;;;46.60;25.00;;;;;;4314085;33;20504;-39
2021/07/20 08:31:49;;;;;;;5.95;5.15;;;47.00;24.80;;;;;;4313831;33;20172;-39
2021/07/20 08:34:16;;;;;;;8.30;6.63;;;47.50;24.60;;;;;;4302631;33;20182;-38
2021/07/20 08:36:42;;;;;;;7.28;5.53;;;47.90;24.30;;;;;;4289742;33;20233;-38
2021/07/20 08:39:09;;;;;;;7.07;6.47;;;48.00;24.30;;;;;;4301733;33;20552;-39
2021/07/20 08:41:59;;;;;;;7.03;6.32;;;48.10;24.10;;;;;;4301733;33;20075;-38
2021/07/20 08:45:17;;;;;;;11.55;6.07;;;47.90;24.30;;;;;;4313811;33;20704;-38
2021/07/20 08:48:17;;;;;;;5.53;5.03;;;47.90;24.30;;;;;;4313890;33;20551;-39
2021/07/20 08:51:07;;;;;;;8.15;5.53;;;48.00;24.10;;;;;;4322376;33;20171;-38
2021/07/20 08:53:39;;;;;;;5.30;4.80;;;48.20;24.20;;;;;;4332391;33;20103;-39
2021/07/20 08:56:06;;;;;;;10.00;5.93;;;48.10;24.10;;;;;;4331124;33;20062;-37
2021/07/20 08:58:50;;;;;;;6.35;4.97;;;48.10;24.30;;;;;;4319356;33;20159;-37
2021/07/20 09:01:33;;;;;;;5.30;4.85;;;48.10;24.20;;;;;;4314256;33;20581;-38
2021/07/20 09:04:10;;;;;;;6.05;5.20;;;48.00;24.10;;;;;;4333365;33;20133;-38
2021/07/20 09:07:03;;;;;;;5.30;4.87;;;48.00;24.40;;;;;;4319959;33;20061;-37
2021/07/20 09:09:36;;;;;;;7.45;5.55;;;48.10;23.90;;;;;;4320476;33;20071;-37
2021/07/20 09:12:05;;;;;;;5.53;5.00;;;48.30;23.80;;;;;;4345436;33;20067;-37
2021/07/20 09:14:51;;;;;;;5.47;4.97;;;48.40;23.60;;;;;;4345538;33;20055;-38
2021/07/20 09:18:04;;;;;;;5.37;4.95;;;48.60;23.60;;;;;;4343910;33;20101;-37
2021/07/20 09:20:34;;;;;;;5.90;5.40;;;48.70;23.60;;;;;;4345653;33;20160;-37
2021/07/20 09:23:16;;;;;;;5.50;4.78;;;48.60;23.20;;;;;;4345161;33;20073;-38
2021/07/20 09:26:21;;;;;;;6.25;5.05;;;48.40;23.40;;;;;;4332501;33;20066;-37
2021/07/20 09:29:02;;;;;;;8.73;5.22;;;48.30;23.50;;;;;;4333421;33;20172;-38
2021/07/20 09:31:47;;;;;;;9.18;5.20;;;48.20;23.50;;;;;;4345409;33;20541;-38
2021/07/20 09:34:28;;;;;;;5.45;5.05;;;48.10;23.60;;;;;;4345052;33;20599;-38
2021/07/20 09:37:10;;;;;;;5.45;4.85;;;48.00;23.70;;;;;;4331765;33;20083;-38
2021/07/20 09:39:46;;;;;;;6.90;4.57;;;47.90;23.90;;;;;;4330301;33;20444;-38
2021/07/20 09:42:42;;;;;;;9.45;4.72;;;47.90;24.10;;;;;;4331142;33;20700;-38
2021/07/20 09:45:11;;;;;;;9.80;4.90;;;47.90;24.50;;;;;;4344809;33;20085;-38
2021/07/20 09:48:04;;;;;;;4.57;4.03;;;47.80;23.80;;;;;;4345324;33;20263;-38
2021/07/20 09:50:38;;;;;;;8.75;4.15;;;47.70;23.40;;;;;;4334292;33;20074;-38
2021/07/20 09:53:35;;;;;;;5.07;4.45;;;47.60;23.50;;;;;;4344753;33;20102;-38
2021/07/20 09:56:32;;;;;;;6.50;4.45;;;47.50;23.80;;;;;;4345066;33;20086;-38
2021/07/20 09:59:40;;;;;;;3.85;3.50;;;47.50;23.70;;;;;;4343517;33;20070;-38
2021/07/20 10:02:18;;;;;;;6.28;4.37;;;47.50;24.00;;;;;;4344294;33;20066;-37
2021/07/20 10:04:59;;;;;;;4.43;3.80;;;47.30;23.70;;;;;;4326916;33;20075;-38
2021/07/20 10:08:00;;;;;;;5.30;4.12;;;46.90;23.80;;;;;;4315843;33;20131;-37
2021/07/20 10:10:44;;;;;;;8.50;4.22;;;46.50;24.20;;;;;;4339815;33;20078;-37
2021/07/20 10:13:20;;;;;;;8.50;4.80;;;46.10;24.60;;;;;;4318104;33;20164;-38
2021/07/20 10:16:01;;;;;;;5.55;3.97;;;45.80;24.90;;;;;;4342359;33;20117;-38
2021/07/20 10:19:04;;;;;;;5.80;4.32;;;45.60;25.20;;;;;;4330470;33;20144;-38
2021/07/20 10:21:30;;;;;;;6.50;4.43;;;45.50;26.20;;;;;;4342478;33;20068;-38
2021/07/20 10:24:02;;;;;;;12.02;5.90;;;45.20;27.10;;;;;;4317526;33;20154;-39
2021/07/20 10:26:31;;;;;;;7.78;5.50;;;44.90;26.70;;;;;;4341780;33;20074;-38
2021/07/20 10:29:48;;;;;;;11.77;6.05;;;44.40;26.40;;;;;;4300186;33;20149;-39
2021/07/20 10:32:38;;;;;;;18.60;6.87;;;43.90;26.70;;;;;;4283005;33;20512;-38
2021/07/20 10:35:08;;;;;;;18.77;6.03;;;43.30;26.80;;;;;;4286168;33;20592;-39
2021/07/20 10:37:36;;;;;;;10.18;4.97;;;42.90;27.00;;;;;;4298170;33;20527;-38
2021/07/20 10:40:14;;;;;;;20.88;6.07;;;42.50;27.30;;;;;;4285871;33;20104;-38
2021/07/20 10:43:05;;;;;;;16.10;5.32;;;42.30;27.20;;;;;;4297805;33;20092;-39
2021/07/20 10:45:33;;;;;;;22.50;5.65;;;42.10;27.30;;;;;;4296206;33;20079;-38
2021/07/20 10:48:18;;;;;;;17.42;5.18;;;41.90;27.20;;;;;;4285589;33;20129;-38
2021/07/20 10:51:19;;;;;;;12.50;4.70;;;41.80;27.30;;;;;;4296883;33;20133;-38
2021/07/20 10:54:21;;;;;;;13.40;4.62;;;41.70;27.00;;;;;;4297422;33;20093;-38
2021/07/20 10:57:01;;;;;;;30.58;4.53;;;41.60;26.70;;;;;;4297487;33;20067;-38
2021/07/20 11:00:07;;;;;;;40.90;3.47;;;41.00;30.40;;;;;;4297639;33;20496;-38
2021/07/20 11:02:35;;;;;;;43.05;4.40;;;39.90;30.90;;;;;;4297949;33;20175;-38
2021/07/20 11:05:06;;;;;;;26.23;2.97;;;38.60;30.80;;;;;;4297200;33;20130;-38
2021/07/20 11:07:52;;;;;;;40.50;6.57;;;37.60;33.70;;;;;;4305580;33;20080;-37
2021/07/20 11:10:31;;;;;;;37.72;6.25;;;36.50;37.30;;;;;;4317997;33;20055;-38
2021/07/20 11:13:07;;;;;;;16.30;4.50;;;35.40;40.30;;;;;;4329764;33;20098;-37
2021/07/20 11:15:35;;;;;;;17.58;3.42;;;34.50;43.40;;;;;;4329985;33;20530;-37
2021/07/20 11:18:14;;;;;;;8.85;2.12;;;33.80;45.10;;;;;;4329877;33;20063;-36
2021/07/20 11:20:42;;;;;;;19.65;2.83;;;33.20;46.40;;;;;;4343121;33;20140;-37
2021/07/20 11:23:09;;;;;;;9.60;2.10;;;32.90;45.80;;;;;;4329866;33;20058;-35
2021/07/20 11:25:38;;;;;;;22.77;2.62;;;32.60;46.20;;;;;;4329805;33;20046;-36
2021/07/20 11:28:05;;;;;;;15.00;2.65;;;32.00;46.90;;;;;;4330245;33;20092;-38
2021/07/20 11:30:35;;;;;;;16.17;2.08;;;31.30;48.20;;;;;;4317410;33;20098;-34
2021/07/20 11:33:24;;;;;;;5.95;1.10;;;30.40;47.90;;;;;;4317402;33;20499;-35
2021/07/20 11:35:55;;;;;;;4.47;1.40;;;29.50;49.10;;;;;;4323703;33;20078;-35
2021/07/20 11:38:24;;;;;;;3.83;1.50;;;28.50;50.80;;;;;;4329571;33;20081;-36
2021/07/20 11:41:06;;;;;;;1.65;0.90;;;27.80;52.40;;;;;;4329838;33;20070;-35
2021/07/20 11:43:46;;;;;;;3.72;2.25;;;27.40;54.40;;;;;;4342995;33;20054;-36
2021/07/20 11:46:15;;;;;;;5.72;2.42;;;27.10;56.00;;;;;;4330187;33;20058;-34
2021/07/20 11:48:55;;;;;;;6.07;1.55;;;26.90;55.60;;;;;;4329257;33;20522;-35
2021/07/20 11:51:26;;;;;;;8.60;3.12;;;26.80;55.50;;;;;;4343140;33;20495;-35
2021/07/20 11:54:18;;;;;;;8.73;2.60;;;26.80;55.30;;;;;;4329372;33;20471;-35
2021/07/20 11:57:17;;;;;;;7.75;3.00;;;26.90;55.40;;;;;;4329914;33;20082;-35
2021/07/20 12:00:15;;;;;;;12.43;4.40;;;27.10;55.00;;;;;;4332253;33;20559;-36
2021/07/20 12:03:08;;;;;;;7.68;4.60;;;27.30;55.10;;;;;;4342709;33;20100;-35
2021/07/20 12:06:24;;;;;;;13.85;5.50;;;27.60;56.40;;;;;;4338089;33;20131;-36
2021/07/20 12:09:45;;;;;;;12.32;4.03;;;27.70;56.10;;;;;;4331109;33;20444;-36
2021/07/20 12:12:11;;;;;;;8.35;3.50;;;28.00;55.70;;;;;;4342690;33;20093;-36
2021/07/20 12:14:38;;;;;;;11.50;4.10;;;28.20;55.50;;;;;;4296301;33;20075;-36
2021/07/20 12:17:04;;;;;;;5.32;2.87;;;28.30;56.20;;;;;;4284689;33;20154;-38
2021/07/20 12:19:36;;;;;;;6.37;2.62;;;28.30;55.20;;;;;;4284516;33;20186;-37
2021/07/20 12:22:04;;;;;;;4.07;2.90;;;28.30;55.00;;;;;;4285154;33;20104;-36
2021/07/20 12:24:31;;;;;;;5.45;2.60;;;28.30;55.20;;;;;;4284680;33;20082;-37
2021/07/20 12:26:57;;;;;;;8.30;3.80;;;28.30;55.40;;;;;;4296412;33;20213;-36
2021/07/20 12:29:24;;;;;;;6.62;3.50;;;28.20;55.80;;;;;;4284509;33;20083;-34
2021/07/20 12:31:51;;;;;;;11.35;3.47;;;28.10;56.10;;;;;;4296755;33;20078;-35
2021/07/20 12:34:17;;;;;;;15.63;8.15;;;27.90;56.70;;;;;;4284345;33;20518;-34
2021/07/20 12:36:45;;;;;;;15.80;4.85;;;27.80;57.10;;;;;;4283847;33;20074;-34
2021/07/20 12:39:20;;;;;;;17.83;4.68;;;27.70;57.20;;;;;;4296591;33;20071;-33
2021/07/20 12:41:54;;;;;;;10.48;3.65;;;27.50;57.30;;;;;;4296684;33;20151;-35
2021/07/20 12:44:23;;;;;;;7.18;3.55;;;27.50;57.80;;;;;;4284816;33;20192;-34
2021/07/20 12:46:50;;;;;;;7.43;2.67;;;27.50;57.90;;;;;;4329048;33;20071;-33
2021/07/20 12:49:17;;;;;;;8.85;3.50;;;27.40;58.30;;;;;;4328647;33;20723;-35
2021/07/20 12:51:54;;;;;;;3.78;2.45;;;27.30;58.30;;;;;;4342488;33;20067;-36
2021/07/20 12:54:43;;;;;;;6.32;4.00;;;27.20;58.50;;;;;;4342851;33;20058;-34
2021/07/20 12:57:13;;;;;;;4.03;2.67;;;27.10;58.90;;;;;;4329467;33;20069;-34
2021/07/20 12:59:43;;;;;;;7.37;3.80;;;27.10;59.10;;;;;;4342864;33;20075;-34
2021/07/20 13:02:12;;;;;;;14.57;4.05;;;27.10;59.90;;;;;;4342691;33;20087;-33
2021/07/20 13:04:39;;;;;;;7.25;3.55;;;27.10;60.40;;;;;;4317491;33;20167;-34
2021/07/20 13:07:05;;;;;;;6.68;3.95;;;27.10;60.00;;;;;;4271666;33;20464;-34
2021/07/20 13:09:32;;;;;;;9.50;4.20;;;27.10;60.00;;;;;;4272254;33;20056;-34
2021/07/20 13:11:58;;;;;;;9.30;3.50;;;27.10;60.10;;;;;;4283927;33;20080;-33
2021/07/20 13:14:25;;;;;;;7.68;4.30;;;27.10;60.10;;;;;;4273931;33;20139;-34